sensor_id;sensor_type;location;lat;lon;timestamp;P1;durP1;ratioP1;P2;durP2;ratioP2
6101;SDS011;3081;50.584;7.032;2024-03-08T00:01:25;34.37;;;20.83;;
6101;SDS011;3081;50.584;7.032;2024-03-08T00:03:53;34.60;;;21.30;;
6101;SDS011;3081;50.584;7.032;2024-03-08T00:06:20;31.70;;;19.57;;
6101;SDS011;3081;50.584;7.032;2024-03-08T00:08:47;41.87;;;21.17;;
6101;SDS011;3081;50.584;7.032;2024-03-08T00:11:14;36.77;;;23.13;;
6101;SDS011;3081;50.584;7.032;2024-03-08T00:13:41;38.67;;;23.37;;
6101;SDS011;3081;50.584;7.032;2024-03-08T00:16:11;30.97;;;20.57;;
6101;SDS011;3081;50.584;7.032;2024-03-08T00:18:38;28.17;;;19.13;;
6101;SDS011;3081;50.584;7.032;2024-03-08T00:21:06;36.07;;;21.80;;
6101;SDS011;3081;50.584;7.032;2024-03-08T00:23:35;44.10;;;24.40;;
6101;SDS011;3081;50.584;7.032;2024-03-08T00:26:02;30.63;;;20.63;;
6101;SDS011;3081;50.584;7.032;2024-03-08T00:28:30;32.63;;;20.13;;
6101;SDS011;3081;50.584;7.032;2024-03-08T00:30:57;31.60;;;20.57;;
6101;SDS011;3081;50.584;7.032;2024-03-08T00:33:25;35.20;;;21.23;;
6101;SDS011;3081;50.584;7.032;2024-03-08T00:35:53;27.87;;;20.03;;
6101;SDS011;3081;50.584;7.032;2024-03-08T00:38:20;25.97;;;18.23;;
6101;SDS011;3081;50.584;7.032;2024-03-08T00:40:47;26.17;;;17.67;;
6101;SDS011;3081;50.584;7.032;2024-03-08T00:43:14;29.30;;;19.50;;
6101;SDS011;3081;50.584;7.032;2024-03-08T00:45:42;42.63;;;24.77;;
6101;SDS011;3081;50.584;7.032;2024-03-08T00:48:09;41.07;;;25.40;;
6101;SDS011;3081;50.584;7.032;2024-03-08T00:50:37;34.57;;;20.57;;
6101;SDS011;3081;50.584;7.032;2024-03-08T00:53:05;28.30;;;18.63;;
6101;SDS011;3081;50.584;7.032;2024-03-08T00:55:32;29.50;;;19.30;;
6101;SDS011;3081;50.584;7.032;2024-03-08T00:58:00;27.93;;;18.53;;
6101;SDS011;3081;50.584;7.032;2024-03-08T01:00:27;25.47;;;17.90;;
6101;SDS011;3081;50.584;7.032;2024-03-08T01:02:54;26.47;;;16.67;;
6101;SDS011;3081;50.584;7.032;2024-03-08T01:05:22;25.17;;;18.40;;
6101;SDS011;3081;50.584;7.032;2024-03-08T01:07:51;29.57;;;18.17;;
6101;SDS011;3081;50.584;7.032;2024-03-08T01:10:18;21.77;;;15.60;;
6101;SDS011;3081;50.584;7.032;2024-03-08T01:12:45;34.23;;;19.57;;
6101;SDS011;3081;50.584;7.032;2024-03-08T01:15:12;29.13;;;17.17;;
6101;SDS011;3081;50.584;7.032;2024-03-08T01:17:39;25.75;;;16.45;;
6101;SDS011;3081;50.584;7.032;2024-03-08T01:20:07;25.80;;;16.40;;
6101;SDS011;3081;50.584;7.032;2024-03-08T01:22:36;23.60;;;15.63;;
6101;SDS011;3081;50.584;7.032;2024-03-08T01:25:05;25.57;;;16.53;;
6101;SDS011;3081;50.584;7.032;2024-03-08T01:27:33;24.67;;;15.83;;
6101;SDS011;3081;50.584;7.032;2024-03-08T01:30:02;25.17;;;15.87;;
6101;SDS011;3081;50.584;7.032;2024-03-08T01:32:30;23.87;;;15.60;;
6101;SDS011;3081;50.584;7.032;2024-03-08T01:34:57;26.93;;;18.40;;
6101;SDS011;3081;50.584;7.032;2024-03-08T01:37:24;32.00;;;18.07;;
6101;SDS011;3081;50.584;7.032;2024-03-08T01:39:51;26.57;;;18.40;;
6101;SDS011;3081;50.584;7.032;2024-03-08T01:42:20;35.63;;;20.10;;
6101;SDS011;3081;50.584;7.032;2024-03-08T01:44:47;26.60;;;18.50;;
6101;SDS011;3081;50.584;7.032;2024-03-08T01:47:14;34.20;;;19.97;;
6101;SDS011;3081;50.584;7.032;2024-03-08T01:49:42;31.47;;;19.10;;
6101;SDS011;3081;50.584;7.032;2024-03-08T01:52:09;32.80;;;18.20;;
6101;SDS011;3081;50.584;7.032;2024-03-08T01:54:37;28.83;;;17.77;;
6101;SDS011;3081;50.584;7.032;2024-03-08T01:57:06;33.13;;;18.73;;
6101;SDS011;3081;50.584;7.032;2024-03-08T01:59:35;34.57;;;18.87;;
6101;SDS011;3081;50.584;7.032;2024-03-08T02:02:02;28.00;;;19.10;;
6101;SDS011;3081;50.584;7.032;2024-03-08T02:04:31;28.77;;;19.23;;
6101;SDS011;3081;50.584;7.032;2024-03-08T02:06:58;28.27;;;17.83;;
6101;SDS011;3081;50.584;7.032;2024-03-08T02:09:25;27.73;;;18.53;;
6101;SDS011;3081;50.584;7.032;2024-03-08T02:11:52;31.30;;;18.07;;
6101;SDS011;3081;50.584;7.032;2024-03-08T02:14:21;33.27;;;20.33;;
6101;SDS011;3081;50.584;7.032;2024-03-08T02:16:50;35.63;;;17.73;;
6101;SDS011;3081;50.584;7.032;2024-03-08T02:19:17;25.23;;;17.63;;
6101;SDS011;3081;50.584;7.032;2024-03-08T02:21:46;31.03;;;17.97;;
6101;SDS011;3081;50.584;7.032;2024-03-08T02:24:13;27.87;;;17.83;;
6101;SDS011;3081;50.584;7.032;2024-03-08T02:26:41;35.20;;;19.20;;
6101;SDS011;3081;50.584;7.032;2024-03-08T02:29:08;31.43;;;19.50;;
6101;SDS011;3081;50.584;7.032;2024-03-08T02:31:36;33.00;;;19.60;;
6101;SDS011;3081;50.584;7.032;2024-03-08T02:34:04;33.37;;;20.23;;
6101;SDS011;3081;50.584;7.032;2024-03-08T02:36:31;27.83;;;19.23;;
6101;SDS011;3081;50.584;7.032;2024-03-08T02:39:01;27.70;;;16.10;;
6101;SDS011;3081;50.584;7.032;2024-03-08T02:41:30;28.20;;;17.27;;
6101;SDS011;3081;50.584;7.032;2024-03-08T02:43:57;29.50;;;17.53;;
6101;SDS011;3081;50.584;7.032;2024-03-08T02:46:25;35.33;;;19.67;;
6101;SDS011;3081;50.584;7.032;2024-03-08T02:48:52;27.87;;;18.27;;
6101;SDS011;3081;50.584;7.032;2024-03-08T02:51:19;26.17;;;17.63;;
6101;SDS011;3081;50.584;7.032;2024-03-08T02:53:46;31.73;;;18.83;;
6101;SDS011;3081;50.584;7.032;2024-03-08T02:56:18;26.83;;;17.50;;
6101;SDS011;3081;50.584;7.032;2024-03-08T02:58:47;32.27;;;20.37;;
6101;SDS011;3081;50.584;7.032;2024-03-08T03:01:14;29.30;;;20.00;;
6101;SDS011;3081;50.584;7.032;2024-03-08T03:03:41;31.47;;;20.77;;
6101;SDS011;3081;50.584;7.032;2024-03-08T03:06:08;33.40;;;20.63;;
6101;SDS011;3081;50.584;7.032;2024-03-08T03:08:37;31.77;;;20.00;;
6101;SDS011;3081;50.584;7.032;2024-03-08T03:11:09;33.70;;;20.50;;
6101;SDS011;3081;50.584;7.032;2024-03-08T03:13:40;28.43;;;20.20;;
6101;SDS011;3081;50.584;7.032;2024-03-08T03:16:07;36.47;;;20.53;;
6101;SDS011;3081;50.584;7.032;2024-03-08T03:18:35;31.37;;;20.23;;
6101;SDS011;3081;50.584;7.032;2024-03-08T03:21:02;30.60;;;20.20;;
6101;SDS011;3081;50.584;7.032;2024-03-08T03:23:32;31.07;;;19.87;;
6101;SDS011;3081;50.584;7.032;2024-03-08T03:26:00;29.87;;;18.83;;
6101;SDS011;3081;50.584;7.032;2024-03-08T03:28:27;33.03;;;19.20;;
6101;SDS011;3081;50.584;7.032;2024-03-08T03:30:56;34.60;;;19.67;;
6101;SDS011;3081;50.584;7.032;2024-03-08T03:33:24;34.60;;;19.43;;
6101;SDS011;3081;50.584;7.032;2024-03-08T03:35:51;33.70;;;20.00;;
6101;SDS011;3081;50.584;7.032;2024-03-08T03:38:18;31.30;;;20.00;;
6101;SDS011;3081;50.584;7.032;2024-03-08T03:40:48;36.20;;;21.90;;
6101;SDS011;3081;50.584;7.032;2024-03-08T03:43:17;34.27;;;20.20;;
6101;SDS011;3081;50.584;7.032;2024-03-08T03:45:44;35.07;;;20.87;;
6101;SDS011;3081;50.584;7.032;2024-03-08T03:48:13;30.27;;;20.93;;
6101;SDS011;3081;50.584;7.032;2024-03-08T03:50:40;33.77;;;20.30;;
6101;SDS011;3081;50.584;7.032;2024-03-08T03:53:08;32.50;;;21.63;;
6101;SDS011;3081;50.584;7.032;2024-03-08T03:55:35;32.90;;;20.67;;
6101;SDS011;3081;50.584;7.032;2024-03-08T03:58:03;37.57;;;19.43;;
6101;SDS011;3081;50.584;7.032;2024-03-08T04:00:30;33.00;;;20.93;;
6101;SDS011;3081;50.584;7.032;2024-03-08T04:02:58;35.70;;;20.17;;
6101;SDS011;3081;50.584;7.032;2024-03-08T04:05:27;33.10;;;19.03;;
6101;SDS011;3081;50.584;7.032;2024-03-08T04:07:54;31.13;;;19.43;;
6101;SDS011;3081;50.584;7.032;2024-03-08T04:10:22;38.57;;;20.00;;
6101;SDS011;3081;50.584;7.032;2024-03-08T04:12:49;37.80;;;18.50;;
6101;SDS011;3081;50.584;7.032;2024-03-08T04:15:16;36.97;;;19.63;;
6101;SDS011;3081;50.584;7.032;2024-03-08T04:17:43;38.50;;;20.57;;
6101;SDS011;3081;50.584;7.032;2024-03-08T04:20:11;33.40;;;20.27;;
6101;SDS011;3081;50.584;7.032;2024-03-08T04:22:41;40.97;;;20.37;;
6101;SDS011;3081;50.584;7.032;2024-03-08T04:25:09;37.57;;;22.67;;
6101;SDS011;3081;50.584;7.032;2024-03-08T04:27:36;38.90;;;21.80;;
6101;SDS011;3081;50.584;7.032;2024-03-08T04:30:04;31.67;;;20.43;;
6101;SDS011;3081;50.584;7.032;2024-03-08T04:32:32;38.27;;;21.60;;
6101;SDS011;3081;50.584;7.032;2024-03-08T04:35:00;34.53;;;21.37;;
6101;SDS011;3081;50.584;7.032;2024-03-08T04:37:28;41.43;;;22.60;;
6101;SDS011;3081;50.584;7.032;2024-03-08T04:39:57;31.20;;;20.13;;
6101;SDS011;3081;50.584;7.032;2024-03-08T04:42:24;35.17;;;22.80;;
6101;SDS011;3081;50.584;7.032;2024-03-08T04:44:52;30.73;;;19.87;;
6101;SDS011;3081;50.584;7.032;2024-03-08T04:47:19;38.73;;;21.20;;
6101;SDS011;3081;50.584;7.032;2024-03-08T04:49:47;38.60;;;21.47;;
6101;SDS011;3081;50.584;7.032;2024-03-08T04:52:15;31.33;;;20.33;;
6101;SDS011;3081;50.584;7.032;2024-03-08T04:54:42;31.17;;;20.23;;
6101;SDS011;3081;50.584;7.032;2024-03-08T04:57:12;34.60;;;21.03;;
6101;SDS011;3081;50.584;7.032;2024-03-08T04:59:39;44.00;;;21.97;;
6101;SDS011;3081;50.584;7.032;2024-03-08T05:02:06;36.50;;;21.13;;
6101;SDS011;3081;50.584;7.032;2024-03-08T05:04:33;37.13;;;22.27;;
6101;SDS011;3081;50.584;7.032;2024-03-08T05:07:01;39.20;;;21.97;;
6101;SDS011;3081;50.584;7.032;2024-03-08T05:09:29;36.80;;;20.53;;
6101;SDS011;3081;50.584;7.032;2024-03-08T05:11:57;43.47;;;21.93;;
6101;SDS011;3081;50.584;7.032;2024-03-08T05:14:26;43.07;;;20.47;;
6101;SDS011;3081;50.584;7.032;2024-03-08T05:16:53;39.57;;;20.57;;
6101;SDS011;3081;50.584;7.032;2024-03-08T05:19:20;37.17;;;22.23;;
6101;SDS011;3081;50.584;7.032;2024-03-08T05:21:48;35.17;;;22.87;;
6101;SDS011;3081;50.584;7.032;2024-03-08T05:24:16;35.63;;;21.73;;
6101;SDS011;3081;50.584;7.032;2024-03-08T05:26:43;37.43;;;20.10;;
6101;SDS011;3081;50.584;7.032;2024-03-08T05:29:11;36.63;;;21.40;;
6101;SDS011;3081;50.584;7.032;2024-03-08T05:31:45;35.27;;;21.73;;
6101;SDS011;3081;50.584;7.032;2024-03-08T05:34:13;44.77;;;23.80;;
6101;SDS011;3081;50.584;7.032;2024-03-08T05:36:40;40.17;;;23.83;;
6101;SDS011;3081;50.584;7.032;2024-03-08T05:39:10;37.63;;;22.73;;
6101;SDS011;3081;50.584;7.032;2024-03-08T05:41:38;43.33;;;22.57;;
6101;SDS011;3081;50.584;7.032;2024-03-08T05:44:05;37.17;;;23.43;;
6101;SDS011;3081;50.584;7.032;2024-03-08T05:46:32;42.53;;;23.33;;
6101;SDS011;3081;50.584;7.032;2024-03-08T05:49:01;40.97;;;22.63;;
6101;SDS011;3081;50.584;7.032;2024-03-08T05:51:30;39.00;;;22.60;;
6101;SDS011;3081;50.584;7.032;2024-03-08T05:53:59;39.00;;;21.40;;
6101;SDS011;3081;50.584;7.032;2024-03-08T05:56:28;35.70;;;22.07;;
6101;SDS011;3081;50.584;7.032;2024-03-08T05:58:55;37.83;;;23.17;;
6101;SDS011;3081;50.584;7.032;2024-03-08T06:01:23;39.70;;;23.63;;
6101;SDS011;3081;50.584;7.032;2024-03-08T06:03:51;45.88;;;28.88;;
6101;SDS011;3081;50.584;7.032;2024-03-08T06:06:22;40.27;;;24.27;;
6101;SDS011;3081;50.584;7.032;2024-03-08T06:08:50;37.57;;;23.63;;
6101;SDS011;3081;50.584;7.032;2024-03-08T06:11:17;42.50;;;24.10;;
6101;SDS011;3081;50.584;7.032;2024-03-08T06:13:44;42.63;;;24.97;;
6101;SDS011;3081;50.584;7.032;2024-03-08T06:16:12;46.17;;;23.97;;
6101;SDS011;3081;50.584;7.032;2024-03-08T06:18:39;37.17;;;22.50;;
6101;SDS011;3081;50.584;7.032;2024-03-08T06:21:07;38.73;;;22.17;;
6101;SDS011;3081;50.584;7.032;2024-03-08T06:23:38;43.07;;;22.80;;
6101;SDS011;3081;50.584;7.032;2024-03-08T06:26:05;35.57;;;22.93;;
6101;SDS011;3081;50.584;7.032;2024-03-08T06:28:32;44.87;;;21.67;;
6101;SDS011;3081;50.584;7.032;2024-03-08T06:31:00;36.77;;;22.87;;
6101;SDS011;3081;50.584;7.032;2024-03-08T06:33:27;36.83;;;22.90;;
6101;SDS011;3081;50.584;7.032;2024-03-08T06:35:55;41.43;;;22.87;;
6101;SDS011;3081;50.584;7.032;2024-03-08T06:38:23;33.60;;;20.30;;
6101;SDS011;3081;50.584;7.032;2024-03-08T06:40:51;36.87;;;20.43;;
6101;SDS011;3081;50.584;7.032;2024-03-08T06:43:20;39.83;;;22.10;;
6101;SDS011;3081;50.584;7.032;2024-03-08T06:45:47;48.03;;;22.10;;
6101;SDS011;3081;50.584;7.032;2024-03-08T06:48:14;39.93;;;22.17;;
6101;SDS011;3081;50.584;7.032;2024-03-08T06:50:42;33.80;;;20.20;;
6101;SDS011;3081;50.584;7.032;2024-03-08T06:53:10;40.47;;;23.47;;
6101;SDS011;3081;50.584;7.032;2024-03-08T06:55:38;33.30;;;21.90;;
6101;SDS011;3081;50.584;7.032;2024-03-08T06:58:07;40.60;;;25.20;;
6101;SDS011;3081;50.584;7.032;2024-03-08T07:00:35;78.27;;;43.40;;
6101;SDS011;3081;50.584;7.032;2024-03-08T07:03:03;43.47;;;24.07;;
6101;SDS011;3081;50.584;7.032;2024-03-08T07:05:37;36.53;;;20.63;;
6101;SDS011;3081;50.584;7.032;2024-03-08T07:08:05;41.97;;;22.83;;
6101;SDS011;3081;50.584;7.032;2024-03-08T07:10:33;32.37;;;20.87;;
6101;SDS011;3081;50.584;7.032;2024-03-08T07:13:00;33.43;;;20.43;;
6101;SDS011;3081;50.584;7.032;2024-03-08T07:15:29;36.73;;;21.03;;
6101;SDS011;3081;50.584;7.032;2024-03-08T07:17:56;34.93;;;20.90;;
6101;SDS011;3081;50.584;7.032;2024-03-08T07:20:25;36.07;;;22.13;;
6101;SDS011;3081;50.584;7.032;2024-03-08T07:22:52;34.70;;;19.33;;
6101;SDS011;3081;50.584;7.032;2024-03-08T07:25:19;29.07;;;19.33;;
6101;SDS011;3081;50.584;7.032;2024-03-08T07:27:47;33.97;;;21.50;;
6101;SDS011;3081;50.584;7.032;2024-03-08T07:30:15;31.23;;;21.33;;
6101;SDS011;3081;50.584;7.032;2024-03-08T07:33:00;33.57;;;20.27;;
6101;SDS011;3081;50.584;7.032;2024-03-08T07:35:28;37.33;;;20.33;;
6101;SDS011;3081;50.584;7.032;2024-03-08T07:37:56;37.50;;;20.63;;
6101;SDS011;3081;50.584;7.032;2024-03-08T07:40:25;45.40;;;21.63;;
6101;SDS011;3081;50.584;7.032;2024-03-08T07:42:52;38.53;;;22.63;;
6101;SDS011;3081;50.584;7.032;2024-03-08T07:45:19;62.77;;;34.73;;
6101;SDS011;3081;50.584;7.032;2024-03-08T07:47:47;49.90;;;31.53;;
6101;SDS011;3081;50.584;7.032;2024-03-08T07:50:17;34.67;;;21.03;;
6101;SDS011;3081;50.584;7.032;2024-03-08T07:52:44;36.90;;;21.87;;
6101;SDS011;3081;50.584;7.032;2024-03-08T07:55:11;56.17;;;22.87;;
6101;SDS011;3081;50.584;7.032;2024-03-08T07:57:40;37.97;;;21.10;;
6101;SDS011;3081;50.584;7.032;2024-03-08T08:00:08;47.47;;;24.50;;
6101;SDS011;3081;50.584;7.032;2024-03-08T08:02:36;41.07;;;21.20;;
6101;SDS011;3081;50.584;7.032;2024-03-08T08:05:03;35.70;;;21.97;;
6101;SDS011;3081;50.584;7.032;2024-03-08T08:07:32;41.73;;;19.77;;
6101;SDS011;3081;50.584;7.032;2024-03-08T08:10:00;36.80;;;19.77;;
6101;SDS011;3081;50.584;7.032;2024-03-08T08:12:27;43.73;;;21.43;;
6101;SDS011;3081;50.584;7.032;2024-03-08T08:14:54;37.73;;;18.13;;
6101;SDS011;3081;50.584;7.032;2024-03-08T08:17:21;30.80;;;18.43;;
6101;SDS011;3081;50.584;7.032;2024-03-08T08:19:49;29.07;;;18.10;;
6101;SDS011;3081;50.584;7.032;2024-03-08T08:22:16;38.27;;;20.90;;
6101;SDS011;3081;50.584;7.032;2024-03-08T08:24:45;49.50;;;23.23;;
6101;SDS011;3081;50.584;7.032;2024-03-08T08:27:12;28.23;;;15.90;;
6101;SDS011;3081;50.584;7.032;2024-03-08T08:29:39;25.97;;;16.40;;
6101;SDS011;3081;50.584;7.032;2024-03-08T08:32:06;29.27;;;17.30;;
6101;SDS011;3081;50.584;7.032;2024-03-08T08:34:35;22.83;;;14.60;;
6101;SDS011;3081;50.584;7.032;2024-03-08T08:37:03;40.33;;;17.63;;
6101;SDS011;3081;50.584;7.032;2024-03-08T08:39:30;25.90;;;14.57;;
6101;SDS011;3081;50.584;7.032;2024-03-08T08:41:59;22.17;;;15.03;;
6101;SDS011;3081;50.584;7.032;2024-03-08T08:44:27;23.53;;;14.70;;
6101;SDS011;3081;50.584;7.032;2024-03-08T08:46:56;23.53;;;15.37;;
6101;SDS011;3081;50.584;7.032;2024-03-08T08:49:23;22.27;;;13.40;;
6101;SDS011;3081;50.584;7.032;2024-03-08T08:51:51;34.27;;;16.23;;
6101;SDS011;3081;50.584;7.032;2024-03-08T08:54:18;24.90;;;16.90;;
6101;SDS011;3081;50.584;7.032;2024-03-08T08:56:47;20.47;;;15.30;;
6101;SDS011;3081;50.584;7.032;2024-03-08T08:59:15;22.10;;;14.60;;
6101;SDS011;3081;50.584;7.032;2024-03-08T09:01:44;19.80;;;13.73;;
6101;SDS011;3081;50.584;7.032;2024-03-08T09:04:12;22.33;;;14.67;;
6101;SDS011;3081;50.584;7.032;2024-03-08T09:06:39;23.50;;;14.90;;
6101;SDS011;3081;50.584;7.032;2024-03-08T09:09:07;24.73;;;15.30;;
6101;SDS011;3081;50.584;7.032;2024-03-08T09:11:36;28.53;;;15.97;;
6101;SDS011;3081;50.584;7.032;2024-03-08T09:14:06;19.07;;;14.03;;
6101;SDS011;3081;50.584;7.032;2024-03-08T09:16:40;21.53;;;15.93;;
6101;SDS011;3081;50.584;7.032;2024-03-08T09:19:07;16.03;;;12.07;;
6101;SDS011;3081;50.584;7.032;2024-03-08T09:21:36;16.63;;;13.00;;
6101;SDS011;3081;50.584;7.032;2024-03-08T09:24:04;15.47;;;10.67;;
6101;SDS011;3081;50.584;7.032;2024-03-08T09:26:32;22.93;;;15.00;;
6101;SDS011;3081;50.584;7.032;2024-03-08T09:28:59;23.53;;;16.30;;
6101;SDS011;3081;50.584;7.032;2024-03-08T09:31:26;19.30;;;13.70;;
6101;SDS011;3081;50.584;7.032;2024-03-08T09:33:55;18.07;;;10.60;;
6101;SDS011;3081;50.584;7.032;2024-03-08T09:36:22;16.93;;;10.77;;
6101;SDS011;3081;50.584;7.032;2024-03-08T09:38:50;16.97;;;13.03;;
6101;SDS011;3081;50.584;7.032;2024-03-08T09:41:18;21.17;;;14.03;;
6101;SDS011;3081;50.584;7.032;2024-03-08T09:43:45;20.80;;;14.43;;
6101;SDS011;3081;50.584;7.032;2024-03-08T09:46:13;19.97;;;14.37;;
6101;SDS011;3081;50.584;7.032;2024-03-08T09:48:41;19.20;;;13.93;;
6101;SDS011;3081;50.584;7.032;2024-03-08T09:51:10;23.13;;;13.40;;
6101;SDS011;3081;50.584;7.032;2024-03-08T09:53:40;17.57;;;10.70;;
6101;SDS011;3081;50.584;7.032;2024-03-08T09:56:08;18.23;;;12.40;;
6101;SDS011;3081;50.584;7.032;2024-03-08T09:58:37;23.00;;;14.67;;
6101;SDS011;3081;50.584;7.032;2024-03-08T10:01:19;20.90;;;15.07;;
6101;SDS011;3081;50.584;7.032;2024-03-08T10:03:47;19.87;;;16.47;;
6101;SDS011;3081;50.584;7.032;2024-03-08T10:06:18;19.57;;;13.87;;
6101;SDS011;3081;50.584;7.032;2024-03-08T10:08:49;19.20;;;14.53;;
6101;SDS011;3081;50.584;7.032;2024-03-08T10:11:18;26.03;;;15.97;;
6101;SDS011;3081;50.584;7.032;2024-03-08T10:13:45;22.27;;;14.70;;
6101;SDS011;3081;50.584;7.032;2024-03-08T10:16:14;18.60;;;14.77;;
6101;SDS011;3081;50.584;7.032;2024-03-08T10:18:42;19.30;;;14.93;;
6101;SDS011;3081;50.584;7.032;2024-03-08T10:21:11;16.83;;;12.20;;
6101;SDS011;3081;50.584;7.032;2024-03-08T10:23:41;19.93;;;15.07;;
6101;SDS011;3081;50.584;7.032;2024-03-08T10:26:10;20.33;;;15.10;;
6101;SDS011;3081;50.584;7.032;2024-03-08T10:28:40;21.80;;;14.10;;
6101;SDS011;3081;50.584;7.032;2024-03-08T10:31:08;26.17;;;16.43;;
6101;SDS011;3081;50.584;7.032;2024-03-08T10:33:35;13.87;;;11.80;;
6101;SDS011;3081;50.584;7.032;2024-03-08T10:36:05;20.23;;;14.77;;
6101;SDS011;3081;50.584;7.032;2024-03-08T10:38:35;20.67;;;13.77;;
6101;SDS011;3081;50.584;7.032;2024-03-08T10:41:06;14.10;;;12.07;;
6101;SDS011;3081;50.584;7.032;2024-03-08T10:43:38;16.23;;;11.83;;
6101;SDS011;3081;50.584;7.032;2024-03-08T10:46:25;17.83;;;10.33;;
6101;SDS011;3081;50.584;7.032;2024-03-08T10:48:57;20.17;;;16.83;;
6101;SDS011;3081;50.584;7.032;2024-03-08T10:51:29;18.80;;;15.37;;
6101;SDS011;3081;50.584;7.032;2024-03-08T10:53:57;27.53;;;14.37;;
6101;SDS011;3081;50.584;7.032;2024-03-08T10:56:30;17.27;;;14.53;;
6101;SDS011;3081;50.584;7.032;2024-03-08T10:58:57;19.87;;;14.17;;
6101;SDS011;3081;50.584;7.032;2024-03-08T11:01:24;20.50;;;13.53;;
6101;SDS011;3081;50.584;7.032;2024-03-08T11:03:52;16.93;;;12.57;;
6101;SDS011;3081;50.584;7.032;2024-03-08T11:06:22;13.97;;;11.00;;
6101;SDS011;3081;50.584;7.032;2024-03-08T11:08:57;15.77;;;12.17;;
6101;SDS011;3081;50.584;7.032;2024-03-08T11:11:25;20.67;;;12.07;;
6101;SDS011;3081;50.584;7.032;2024-03-08T11:14:01;17.23;;;12.07;;
6101;SDS011;3081;50.584;7.032;2024-03-08T11:16:39;16.63;;;12.80;;
6101;SDS011;3081;50.584;7.032;2024-03-08T11:19:23;31.17;;;14.33;;
6101;SDS011;3081;50.584;7.032;2024-03-08T11:22:00;19.00;;;13.17;;
6101;SDS011;3081;50.584;7.032;2024-03-08T11:24:36;15.40;;;12.20;;
6101;SDS011;3081;50.584;7.032;2024-03-08T11:27:05;17.93;;;12.33;;
6101;SDS011;3081;50.584;7.032;2024-03-08T11:29:39;13.33;;;10.57;;
6101;SDS011;3081;50.584;7.032;2024-03-08T11:32:10;16.40;;;12.77;;
6101;SDS011;3081;50.584;7.032;2024-03-08T11:34:38;15.77;;;11.20;;
6101;SDS011;3081;50.584;7.032;2024-03-08T11:37:12;17.10;;;12.53;;
6101;SDS011;3081;50.584;7.032;2024-03-08T11:39:40;16.10;;;12.83;;
6101;SDS011;3081;50.584;7.032;2024-03-08T11:42:12;18.10;;;14.57;;
6101;SDS011;3081;50.584;7.032;2024-03-08T11:44:42;10.77;;;8.83;;
6101;SDS011;3081;50.584;7.032;2024-03-08T11:47:09;12.20;;;8.03;;
6101;SDS011;3081;50.584;7.032;2024-03-08T11:49:37;13.60;;;7.53;;
6101;SDS011;3081;50.584;7.032;2024-03-08T11:52:04;10.50;;;8.23;;
6101;SDS011;3081;50.584;7.032;2024-03-08T11:54:32;14.03;;;8.63;;
6101;SDS011;3081;50.584;7.032;2024-03-08T11:56:59;12.70;;;8.53;;
6101;SDS011;3081;50.584;7.032;2024-03-08T11:59:27;9.03;;;7.17;;
6101;SDS011;3081;50.584;7.032;2024-03-08T12:02:01;10.10;;;7.60;;
6101;SDS011;3081;50.584;7.032;2024-03-08T12:04:29;11.20;;;8.13;;
6101;SDS011;3081;50.584;7.032;2024-03-08T12:06:59;14.97;;;8.80;;
6101;SDS011;3081;50.584;7.032;2024-03-08T12:09:27;12.30;;;8.07;;
6101;SDS011;3081;50.584;7.032;2024-03-08T12:11:54;10.67;;;8.17;;
6101;SDS011;3081;50.584;7.032;2024-03-08T12:14:21;14.33;;;9.17;;
6101;SDS011;3081;50.584;7.032;2024-03-08T12:16:50;9.17;;;7.67;;
6101;SDS011;3081;50.584;7.032;2024-03-08T12:19:19;11.03;;;8.27;;
6101;SDS011;3081;50.584;7.032;2024-03-08T12:21:47;12.53;;;8.73;;
6101;SDS011;3081;50.584;7.032;2024-03-08T12:24:15;9.13;;;7.17;;
6101;SDS011;3081;50.584;7.032;2024-03-08T12:26:45;15.20;;;11.97;;
6101;SDS011;3081;50.584;7.032;2024-03-08T12:29:17;18.07;;;15.47;;
6101;SDS011;3081;50.584;7.032;2024-03-08T12:31:47;18.07;;;16.17;;
6101;SDS011;3081;50.584;7.032;2024-03-08T12:34:17;14.90;;;8.87;;
6101;SDS011;3081;50.584;7.032;2024-03-08T12:36:46;16.87;;;12.80;;
6101;SDS011;3081;50.584;7.032;2024-03-08T12:39:16;12.30;;;9.53;;
6101;SDS011;3081;50.584;7.032;2024-03-08T12:41:47;13.57;;;11.03;;
6101;SDS011;3081;50.584;7.032;2024-03-08T12:44:17;11.63;;;8.67;;
6101;SDS011;3081;50.584;7.032;2024-03-08T12:46:44;14.87;;;10.20;;
6101;SDS011;3081;50.584;7.032;2024-03-08T12:49:11;11.17;;;8.83;;
6101;SDS011;3081;50.584;7.032;2024-03-08T12:51:44;12.73;;;7.63;;
6101;SDS011;3081;50.584;7.032;2024-03-08T12:54:11;11.23;;;8.93;;
6101;SDS011;3081;50.584;7.032;2024-03-08T12:56:38;11.30;;;9.40;;
6101;SDS011;3081;50.584;7.032;2024-03-08T12:59:06;10.93;;;8.75;;
6101;SDS011;3081;50.584;7.032;2024-03-08T13:01:35;11.00;;;8.60;;
6101;SDS011;3081;50.584;7.032;2024-03-08T13:04:03;11.20;;;8.70;;
6101;SDS011;3081;50.584;7.032;2024-03-08T13:06:31;8.40;;;7.43;;
6101;SDS011;3081;50.584;7.032;2024-03-08T13:09:00;10.75;;;8.70;;
6101;SDS011;3081;50.584;7.032;2024-03-08T13:11:30;11.52;;;8.13;;
6101;SDS011;3081;50.584;7.032;2024-03-08T13:14:02;17.30;;;10.63;;
6101;SDS011;3081;50.584;7.032;2024-03-08T13:16:30;12.13;;;8.65;;
6101;SDS011;3081;50.584;7.032;2024-03-08T13:19:00;10.95;;;8.35;;
6101;SDS011;3081;50.584;7.032;2024-03-08T13:21:27;15.55;;;10.20;;
6101;SDS011;3081;50.584;7.032;2024-03-08T13:23:55;12.60;;;9.65;;
6101;SDS011;3081;50.584;7.032;2024-03-08T13:26:25;17.13;;;9.65;;
6101;SDS011;3081;50.584;7.032;2024-03-08T13:28:58;15.40;;;10.38;;
6101;SDS011;3081;50.584;7.032;2024-03-08T13:31:25;13.73;;;11.50;;
6101;SDS011;3081;50.584;7.032;2024-03-08T13:33:52;12.27;;;10.25;;
6101;SDS011;3081;50.584;7.032;2024-03-08T13:36:23;13.25;;;10.52;;
6101;SDS011;3081;50.584;7.032;2024-03-08T13:38:54;14.07;;;9.77;;
6101;SDS011;3081;50.584;7.032;2024-03-08T13:41:25;14.80;;;10.15;;
6101;SDS011;3081;50.584;7.032;2024-03-08T13:43:53;20.23;;;13.90;;
6101;SDS011;3081;50.584;7.032;2024-03-08T13:46:21;14.88;;;11.40;;
6101;SDS011;3081;50.584;7.032;2024-03-08T13:48:49;19.55;;;13.25;;
6101;SDS011;3081;50.584;7.032;2024-03-08T13:51:16;27.58;;;10.48;;
6101;SDS011;3081;50.584;7.032;2024-03-08T13:53:45;17.65;;;14.43;;
6101;SDS011;3081;50.584;7.032;2024-03-08T13:56:12;13.43;;;11.43;;
6101;SDS011;3081;50.584;7.032;2024-03-08T13:58:41;14.93;;;12.13;;
6101;SDS011;3081;50.584;7.032;2024-03-08T14:01:09;14.07;;;11.32;;
6101;SDS011;3081;50.584;7.032;2024-03-08T14:03:37;15.73;;;12.30;;
6101;SDS011;3081;50.584;7.032;2024-03-08T14:06:07;13.50;;;11.30;;
6101;SDS011;3081;50.584;7.032;2024-03-08T14:08:34;12.98;;;10.27;;
6101;SDS011;3081;50.584;7.032;2024-03-08T14:11:03;10.05;;;8.85;;
6101;SDS011;3081;50.584;7.032;2024-03-08T14:13:41;21.20;;;11.75;;
6101;SDS011;3081;50.584;7.032;2024-03-08T14:16:10;17.90;;;10.95;;
6101;SDS011;3081;50.584;7.032;2024-03-08T14:18:38;14.85;;;12.15;;
6101;SDS011;3081;50.584;7.032;2024-03-08T14:21:05;14.38;;;11.18;;
6101;SDS011;3081;50.584;7.032;2024-03-08T14:23:33;11.65;;;9.80;;
6101;SDS011;3081;50.584;7.032;2024-03-08T14:26:01;13.45;;;11.27;;
6101;SDS011;3081;50.584;7.032;2024-03-08T14:28:29;14.90;;;11.48;;
6101;SDS011;3081;50.584;7.032;2024-03-08T14:30:59;17.63;;;13.98;;
6101;SDS011;3081;50.584;7.032;2024-03-08T14:33:28;19.02;;;13.27;;
6101;SDS011;3081;50.584;7.032;2024-03-08T14:35:57;12.38;;;11.07;;
6101;SDS011;3081;50.584;7.032;2024-03-08T14:38:24;13.65;;;11.40;;
6101;SDS011;3081;50.584;7.032;2024-03-08T14:40:52;16.52;;;11.73;;
6101;SDS011;3081;50.584;7.032;2024-03-08T14:43:20;16.27;;;13.80;;
6101;SDS011;3081;50.584;7.032;2024-03-08T14:45:48;20.30;;;13.20;;
6101;SDS011;3081;50.584;7.032;2024-03-08T14:48:17;16.27;;;13.07;;
6101;SDS011;3081;50.584;7.032;2024-03-08T14:50:44;18.10;;;14.73;;
6101;SDS011;3081;50.584;7.032;2024-03-08T14:53:12;14.63;;;11.50;;
6101;SDS011;3081;50.584;7.032;2024-03-08T14:55:40;13.52;;;10.50;;
6101;SDS011;3081;50.584;7.032;2024-03-08T14:58:09;14.90;;;10.75;;